Time;durP1;ratioP1;P1;durP2;ratioP2;P2;SDS_P1;SDS_P2;PMS_P1;PMS_P2;Temp;Humidity;BMP_temperature;BMP_pressure;BME280_temperature;BME280_humidity;BME280_pressure;Samples;Min_cycle;Max_cycle;Signal;HPM_P1;HPM_P2
2021/03/16 00:00:37;;;;;;;39.28;19.88;;;;;;;4.55;64.80;99555.81;5053014;28;20501;-62
2021/03/16 00:03:03;;;;;;;39.38;20.42;;;;;;;4.65;65.85;99564.06;5053140;28;20025;-62
2021/03/16 00:05:29;;;;;;;37.78;19.80;;;;;;;4.37;65.24;99510.06;5056888;28;20036;-60
2021/03/16 00:07:54;;;;;;;38.63;20.40;;;;;;;4.71;65.60;99571.69;5070427;28;20127;-59
2021/03/16 00:10:19;;;;;;;34.70;19.08;;;;;;;4.70;65.42;99569.94;5063166;28;20104;-63
2021/03/16 00:12:45;;;;;;;36.17;19.95;;;;;;;4.71;64.99;99572.50;5061579;28;20086;-60
2021/03/16 00:15:12;;;;;;;37.95;20.35;;;;;;;4.72;64.92;99562.78;5062170;28;20083;-63
2021/03/16 00:17:37;;;;;;;37.50;20.05;;;;;;;4.72;65.33;99570.72;5072529;28;20036;-62
2021/03/16 00:20:04;;;;;;;37.30;19.48;;;;;;;4.72;65.20;99565.44;5065194;28;20472;-63
2021/03/16 00:22:29;;;;;;;34.15;20.02;;;;;;;4.68;65.32;99559.44;5067891;28;20024;-62
2021/03/16 00:24:55;;;;;;;36.22;20.13;;;;;;;4.66;65.15;99557.81;5059367;28;20049;-62
2021/03/16 00:27:20;;;;;;;36.40;19.85;;;;;;;4.65;65.49;99558.75;5071198;28;20024;-62
2021/03/16 00:29:46;;;;;;;36.50;19.00;;;;;;;4.60;65.35;99559.06;5062901;28;20033;-61
2021/03/16 00:32:11;;;;;;;38.90;19.85;;;;;;;4.55;65.27;99561.13;5060573;28;20120;-62
2021/03/16 00:34:37;;;;;;;40.55;20.83;;;;;;;4.52;65.48;99561.31;5061480;28;20111;-63
2021/03/16 00:37:02;;;;;;;39.72;20.65;;;;;;;4.36;65.52;99543.69;5071731;28;20575;-61
2021/03/16 00:39:28;;;;;;;39.35;20.30;;;;;;;4.44;65.87;99559.97;5067965;28;20032;-61
2021/03/16 00:41:53;;;;;;;34.50;18.95;;;;;;;4.27;65.33;99525.66;5062892;28;20395;-60
2021/03/16 00:44:19;;;;;;;39.33;19.58;;;;;;;4.41;65.62;99552.22;5063481;28;20059;-62
2021/03/16 00:46:44;;;;;;;35.35;18.95;;;;;;;4.34;65.62;99548.22;5069301;28;20072;-61
2021/03/16 00:49:10;;;;;;;38.95;19.52;;;;;;;4.26;65.83;99553.97;5069116;28;20123;-62
2021/03/16 00:51:35;;;;;;;39.78;20.35;;;;;;;4.16;65.58;99558.94;5071724;28;20397;-61
2021/03/16 00:54:01;;;;;;;35.72;18.85;;;;;;;4.10;66.14;99561.09;5061478;28;20044;-62
2021/03/16 00:56:26;;;;;;;35.42;19.13;;;;;;;3.98;66.08;99552.06;5052562;28;20510;-61
2021/03/16 00:58:51;;;;;;;37.88;19.98;;;;;;;3.97;65.87;99566.25;5062763;28;20044;-62
2021/03/16 01:01:17;;;;;;;36.85;20.50;;;;;;;3.93;66.54;99562.06;5052369;28;20064;-60
2021/03/16 01:03:42;;;;;;;33.25;18.70;;;;;;;3.90;66.30;99564.91;5053587;28;20097;-62
2021/03/16 01:06:08;;;;;;;36.45;20.17;;;;;;;3.85;66.82;99562.50;5056937;28;20127;-60
2021/03/16 01:08:33;;;;;;;38.05;19.38;;;;;;;3.80;66.65;99554.81;5064903;28;20131;-60
2021/03/16 01:10:59;;;;;;;35.47;18.42;;;;;;;3.83;66.46;99564.41;5065013;28;20024;-62
2021/03/16 01:13:25;;;;;;;35.90;18.27;;;;;;;3.53;66.73;99521.03;5060766;28;20028;-62
2021/03/16 01:15:52;;;;;;;32.30;17.67;;;;;;;3.91;66.13;99563.97;5061859;28;20036;-62
2021/03/16 01:18:18;;;;;;;33.85;18.05;;;;;;;3.88;66.45;99559.69;5063567;28;20036;-61
2021/03/16 01:20:44;;;;;;;37.83;19.25;;;;;;;3.90;65.93;99570.22;5055889;28;20256;-59
2021/03/16 01:23:09;;;;;;;37.90;19.00;;;;;;;3.95;66.13;99563.69;5069709;28;20028;-60
2021/03/16 01:25:35;;;;;;;38.13;19.00;;;;;;;4.02;66.03;99574.78;5063285;28;20029;-60
2021/03/16 01:28:00;;;;;;;37.90;18.83;;;;;;;4.04;65.71;99569.41;5068500;28;20044;-62
2021/03/16 01:30:26;;;;;;;34.92;18.17;;;;;;;3.99;65.72;99578.47;5065801;28;20040;-61
2021/03/16 01:32:52;;;;;;;34.80;18.15;;;;;;;4.00;65.49;99584.63;5069337;28;20116;-61
2021/03/16 01:35:18;;;;;;;39.90;21.77;;;;;;;3.99;66.02;99588.22;5060980;28;20025;-61
2021/03/16 01:37:44;;;;;;;37.40;19.60;;;;;;;4.05;65.33;99587.84;5064182;28;20453;-57
2021/03/16 01:40:15;;;;;;;37.50;19.13;;;;;;;4.04;65.55;99596.75;5060844;28;20135;-62
2021/03/16 01:42:42;;;;;;;35.08;18.73;;;;;;;4.07;65.27;99608.97;5067818;28;20078;-57
2021/03/16 01:45:10;;;;;;;41.60;19.45;;;;;;;4.10;65.93;99600.84;5056448;28;20060;-61
2021/03/16 01:47:48;;;;;;;36.03;19.50;;;;;;;4.08;65.60;99603.56;5066001;28;20506;-62
2021/03/16 01:50:19;;;;;;;42.60;19.75;;;;;;;4.06;65.08;99609.91;5068797;28;20094;-57
2021/03/16 01:52:46;;;;;;;36.00;18.05;;;;;;;4.10;65.48;99614.09;5069483;28;20053;-62
2021/03/16 01:55:13;;;;;;;38.53;21.55;;;;;;;4.10;65.48;99625.56;5057541;28;20060;-61
2021/03/16 01:57:41;;;;;;;41.20;20.50;;;;;;;4.10;65.36;99630.84;5068978;28;20109;-63
2021/03/16 02:00:07;;;;;;;39.97;20.15;;;;;;;4.10;65.57;99608.78;5064334;28;20045;-62
2021/03/16 02:02:34;;;;;;;39.80;21.00;;;;;;;3.88;65.55;99586.16;5059163;28;20024;-62
2021/03/16 02:05:00;;;;;;;40.40;20.25;;;;;;;4.11;65.96;99631.69;5069647;28;20060;-63
2021/03/16 02:07:31;;;;;;;43.25;20.73;;;;;;;4.09;65.81;99615.88;5059014;28;20060;-62
2021/03/16 02:10:01;;;;;;;39.42;20.33;;;;;;;4.04;65.71;99609.16;5067884;28;20093;-63
2021/03/16 02:12:32;;;;;;;41.30;20.85;;;;;;;4.02;65.61;99614.53;5057963;28;20414;-62
2021/03/16 02:15:05;;;;;;;40.88;21.55;;;;;;;3.93;65.82;99618.53;5055652;28;20414;-63
2021/03/16 02:17:36;;;;;;;44.38;22.05;;;;;;;3.93;66.64;99628.28;5056991;28;20498;-63
2021/03/16 02:20:13;;;;;;;43.38;21.08;;;;;;;3.95;66.46;99632.56;5059498;28;20497;-62
2021/03/16 02:22:42;;;;;;;43.03;21.20;;;;;;;3.97;65.83;99627.19;5069056;28;20044;-61
2021/03/16 02:25:42;;;;;;;43.22;22.45;;;;;;;4.01;66.66;99631.34;5069173;28;20073;-61
2021/03/16 02:28:26;;;;;;;45.67;22.27;;;;;;;3.99;66.85;99638.53;5067508;28;20048;-64
2021/03/16 02:30:53;;;;;;;40.10;21.10;;;;;;;3.90;66.11;99631.97;5058301;28;20560;-61
2021/03/16 02:33:23;;;;;;;42.97;22.65;;;;;;;3.92;66.11;99626.59;5055899;28;20098;-64
2021/03/16 02:35:51;;;;;;;48.47;24.63;;;;;;;3.91;66.85;99628.38;5060285;28;20497;-62
2021/03/16 02:38:20;;;;;;;46.97;24.73;;;;;;;3.82;66.34;99627.09;5058656;28;20094;-60
2021/03/16 02:40:49;;;;;;;44.40;24.77;;;;;;;3.82;66.97;99632.38;5062444;28;20055;-59
2021/03/16 02:43:16;;;;;;;52.10;25.95;;;;;;;3.79;66.93;99629.91;5066648;28;20084;-61
2021/03/16 02:45:42;;;;;;;50.72;26.50;;;;;;;3.79;67.17;99621.13;5053668;28;20048;-62
2021/03/16 02:48:08;;;;;;;49.83;25.88;;;;;;;3.82;66.84;99624.44;5054044;28;20047;-55
2021/03/16 02:50:35;;;;;;;51.45;27.58;;;;;;;3.82;67.11;99628.91;5049810;28;20037;-62
2021/03/16 02:53:01;;;;;;;52.83;28.52;;;;;;;3.83;67.39;99641.19;5067962;28;20024;-58
2021/03/16 02:55:29;;;;;;;54.65;28.10;;;;;;;3.87;67.33;99626.84;5067228;28;20075;-59
2021/03/16 02:57:57;;;;;;;54.78;28.33;;;;;;;3.87;67.01;99630.34;5059124;28;20500;-60
2021/03/16 03:00:23;;;;;;;53.50;27.95;;;;;;;3.86;67.28;99623.34;5061040;28;20040;-62
2021/03/16 03:02:51;;;;;;;52.35;27.55;;;;;;;3.88;67.43;99623.25;5059213;28;20504;-61
2021/03/16 03:05:18;;;;;;;59.83;28.60;;;;;;;3.85;67.54;99636.66;5063065;28;20122;-63
2021/03/16 03:07:44;;;;;;;54.63;27.50;;;;;;;3.84;67.08;99633.16;5060984;28;20032;-53
2021/03/16 03:10:11;;;;;;;53.53;29.13;;;;;;;3.89;67.68;99651.44;5052683;28;20041;-62
2021/03/16 03:12:37;;;;;;;54.35;28.70;;;;;;;3.81;67.47;99620.09;5057780;28;20045;-60
2021/03/16 03:15:09;;;;;;;54.17;27.52;;;;;;;4.00;67.49;99645.53;5053192;28;20029;-61
2021/03/16 03:17:36;;;;;;;54.47;29.20;;;;;;;4.05;67.25;99648.78;5066921;28;20037;-62
2021/03/16 03:20:05;;;;;;;51.08;26.45;;;;;;;4.04;67.21;99620.59;5062920;28;20068;-61
2021/03/16 03:22:45;;;;;;;51.35;26.23;;;;;;;4.30;67.31;99642.09;5069650;28;20036;-61
2021/03/16 03:25:19;;;;;;;56.50;29.00;;;;;;;4.35;66.70;99645.34;5067786;28;20067;-63
2021/03/16 03:27:50;;;;;;;51.40;26.70;;;;;;;4.41;65.92;99647.63;5066720;28;20078;-59
2021/03/16 03:30:18;;;;;;;51.05;25.63;;;;;;;4.29;66.02;99612.09;5068718;28;20041;-61
2021/03/16 03:32:43;;;;;;;54.28;24.67;;;;;;;4.51;65.60;99647.09;5068975;28;20074;-56
2021/03/16 03:35:10;;;;;;;51.72;25.27;;;;;;;4.56;65.51;99651.19;5064400;28;20117;-62
2021/03/16 03:37:37;;;;;;;55.35;25.80;;;;;;;4.45;65.74;99629.72;5064549;28;20033;-57
2021/03/16 03:40:04;;;;;;;53.22;25.30;;;;;;;4.41;65.34;99631.72;5063555;28;20032;-62
2021/03/16 03:42:31;;;;;;;51.92;25.00;;;;;;;4.45;65.22;99646.50;5066435;28;20020;-63
2021/03/16 03:45:00;;;;;;;56.58;27.30;;;;;;;4.51;65.42;99649.75;5070898;28;20131;-61
2021/03/16 03:47:28;;;;;;;54.88;25.77;;;;;;;4.54;65.04;99655.72;5070119;28;20528;-63
2021/03/16 03:49:54;;;;;;;55.05;25.83;;;;;;;4.53;65.78;99658.47;5065567;28;20043;-62
2021/03/16 03:52:21;;;;;;;53.80;27.40;;;;;;;4.51;65.26;99660.34;5072015;28;20394;-60
2021/03/16 03:54:48;;;;;;;53.28;26.92;;;;;;;4.54;64.81;99654.88;5070113;28;20082;-62
2021/03/16 03:57:15;;;;;;;55.70;27.30;;;;;;;4.52;65.57;99654.97;5068598;28;20045;-56
2021/03/16 03:59:45;;;;;;;59.30;26.02;;;;;;;4.45;65.57;99656.25;5062321;28;20033;-61
2021/03/16 04:02:11;;;;;;;54.75;26.38;;;;;;;4.41;66.42;99652.94;5067934;28;20044;-62
2021/03/16 04:04:38;;;;;;;54.80;25.50;;;;;;;4.26;65.52;99635.25;5063895;28;20502;-62
2021/03/16 04:07:05;;;;;;;56.65;26.40;;;;;;;4.38;65.89;99658.41;5056834;28;20060;-62
2021/03/16 04:09:31;;;;;;;56.03;27.45;;;;;;;4.45;65.79;99666.84;5057618;28;20064;-63
2021/03/16 04:11:57;;;;;;;55.13;26.42;;;;;;;4.27;65.53;99626.38;5055015;28;20127;-62
2021/03/16 04:14:23;;;;;;;54.60;26.65;;;;;;;4.49;65.68;99648.97;5054805;28;20033;-62
2021/03/16 04:16:50;;;;;;;57.35;28.42;;;;;;;4.62;65.04;99668.53;5064230;28;20474;-61
2021/03/16 04:19:16;;;;;;;58.00;26.50;;;;;;;4.65;64.67;99671.00;5071085;28;20039;-62
2021/03/16 04:21:42;;;;;;;53.70;25.60;;;;;;;4.65;65.12;99675.44;5069534;28;20123;-62
2021/03/16 04:24:09;;;;;;;57.47;27.25;;;;;;;4.73;64.38;99681.19;5072040;28;20036;-60
2021/03/16 04:26:34;;;;;;;55.65;27.63;;;;;;;4.67;64.48;99668.25;5069752;28;20259;-62
2021/03/16 04:29:00;;;;;;;60.25;26.75;;;;;;;4.72;64.93;99672.34;5056372;28;20029;-59
2021/03/16 04:31:25;;;;;;;61.92;27.75;;;;;;;4.76;64.23;99686.31;5070050;28;20033;-61
2021/03/16 04:33:50;;;;;;;58.10;27.30;;;;;;;4.34;64.51;99611.84;5063830;28;20044;-63
2021/03/16 04:36:16;;;;;;;62.78;28.63;;;;;;;4.87;64.20;99694.47;5065155;28;20038;-61
2021/03/16 04:38:41;;;;;;;60.10;27.50;;;;;;;4.88;64.33;99693.50;5067643;28;20109;-61
2021/03/16 04:41:07;;;;;;;63.25;28.63;;;;;;;4.94;64.36;99692.31;5068335;28;20037;-62
2021/03/16 04:43:32;;;;;;;59.45;28.15;;;;;;;4.98;64.02;99695.66;5059354;28;20231;-62
2021/03/16 04:45:58;;;;;;;63.30;27.92;;;;;;;5.05;63.56;99693.44;5062647;28;20056;-62
2021/03/16 04:48:23;;;;;;;60.28;28.02;;;;;;;5.11;64.10;99696.59;5062281;28;20041;-62
2021/03/16 04:50:49;;;;;;;56.97;28.90;;;;;;;5.21;64.19;99706.69;5066478;28;20044;-63
2021/03/16 04:53:14;;;;;;;61.85;30.13;;;;;;;5.29;63.62;99696.44;5056021;28;20041;-60
2021/03/16 04:55:40;;;;;;;61.10;28.13;;;;;;;5.36;63.17;99711.03;5061005;28;20025;-66
2021/03/16 04:58:05;;;;;;;62.72;28.65;;;;;;;5.59;61.93;99703.47;5070926;28;20071;-67
2021/03/16 05:00:31;;;;;;;61.17;28.98;;;;;;;5.37;61.79;99642.88;5061878;28;20056;-64
2021/03/16 05:02:56;;;;;;;61.42;28.20;;;;;;;5.75;61.19;99701.56;5060772;28;20041;-58
2021/03/16 05:05:22;;;;;;;57.55;28.42;;;;;;;5.48;61.17;99656.34;5057578;28;20123;-62
2021/03/16 05:07:47;;;;;;;64.03;28.77;;;;;;;5.74;60.99;99720.25;5069593;28;20028;-64
2021/03/16 05:10:13;;;;;;;66.22;30.33;;;;;;;5.80;60.81;99713.72;5052623;28;20558;-60
2021/03/16 05:12:38;;;;;;;63.58;28.92;;;;;;;5.83;61.10;99711.72;5059387;28;20082;-60
2021/03/16 05:15:06;;;;;;;61.80;30.30;;;;;;;5.99;60.99;99721.38;5057375;28;20602;-62
2021/03/16 05:17:32;;;;;;;64.05;28.83;;;;;;;6.03;60.94;99720.28;5071089;28;20033;-60
2021/03/16 05:19:58;;;;;;;59.97;29.20;;;;;;;6.18;60.58;99729.91;5068132;28;20091;-62
2021/03/16 05:22:23;;;;;;;63.22;29.80;;;;;;;6.12;59.93;99708.19;5058640;28;20087;-53
2021/03/16 05:24:48;;;;;;;61.25;29.45;;;;;;;6.29;59.95;99731.06;5055637;28;20028;-64
2021/03/16 05:27:14;;;;;;;59.83;28.85;;;;;;;6.32;59.52;99741.50;5071091;28;20032;-60
2021/03/16 05:29:39;;;;;;;63.67;28.02;;;;;;;6.40;59.67;99738.34;5065341;28;20024;-63
2021/03/16 05:32:05;;;;;;;62.70;30.35;;;;;;;6.37;59.62;99734.06;5055370;28;20036;-64
2021/03/16 05:34:31;;;;;;;63.22;29.73;;;;;;;6.39;59.10;99724.16;5053470;28;20044;-61
2021/03/16 05:36:56;;;;;;;62.67;31.20;;;;;;;6.51;59.25;99749.13;5070117;28;20040;-61
2021/03/16 05:39:22;;;;;;;65.40;31.60;;;;;;;6.56;59.28;99744.34;5065836;28;20103;-61
2021/03/16 05:41:47;;;;;;;69.10;31.65;;;;;;;6.56;59.20;99733.72;5061245;28;20120;-62
2021/03/16 05:44:14;;;;;;;65.13;31.52;;;;;;;6.64;59.27;99733.22;5065129;28;20068;-61
2021/03/16 05:46:40;;;;;;;68.03;31.70;;;;;;;6.69;59.25;99725.78;5071146;28;20053;-60
2021/03/16 05:49:07;;;;;;;70.43;33.05;;;;;;;6.81;58.37;99734.75;5070295;28;20067;-60
2021/03/16 05:51:34;;;;;;;67.60;30.48;;;;;;;6.76;58.38;99728.88;5067150;28;20498;-62
2021/03/16 05:53:59;;;;;;;70.63;31.13;;;;;;;6.83;58.64;99739.97;5063321;28;20577;-61
2021/03/16 05:56:25;;;;;;;67.57;31.88;;;;;;;6.86;58.44;99739.78;5065812;28;20047;-59
2021/03/16 05:58:52;;;;;;;68.00;32.75;;;;;;;6.88;58.45;99736.06;5068537;28;20040;-61
2021/03/16 06:01:17;;;;;;;67.72;31.98;;;;;;;6.84;58.56;99720.41;5069775;28;20469;-61
2021/03/16 06:03:46;;;;;;;73.05;33.92;;;;;;;6.93;58.45;99735.72;5062018;28;20116;-60
2021/03/16 06:06:11;;;;;;;75.38;34.65;;;;;;;6.65;58.17;99683.53;5062949;28;20040;-59
2021/03/16 06:08:37;;;;;;;80.15;35.33;;;;;;;7.01;58.47;99751.19;5065806;28;20033;-60
2021/03/16 06:11:06;;;;;;;75.13;34.95;;;;;;;7.02;58.51;99760.88;5065854;28;20541;-60
2021/03/16 06:13:32;;;;;;;80.70;36.53;;;;;;;6.92;58.25;99742.00;5059940;28;20039;-61
2021/03/16 06:16:14;;;;;;;82.72;37.47;;;;;;;6.96;58.65;99746.16;5061389;28;20024;-62
2021/03/16 06:18:43;;;;;;;76.05;34.58;;;;;;;6.92;58.35;99763.31;5064544;28;20040;-62
2021/03/16 06:21:09;;;;;;;77.75;34.22;;;;;;;6.85;58.55;99751.38;5065544;28;20076;-61
2021/03/16 06:23:37;;;;;;;77.05;35.55;;;;;;;6.66;58.31;99757.91;5067454;28;20513;-55
2021/03/16 06:26:11;;;;;;;77.25;35.53;;;;;;;6.56;59.22;99754.97;5067621;28;20451;-56
2021/03/16 06:28:36;;;;;;;72.50;34.20;;;;;;;6.55;59.62;99763.91;5064296;28;20036;-57
2021/03/16 06:31:03;;;;;;;76.65;35.50;;;;;;;6.53;59.42;99759.69;5056489;28;20078;-60
2021/03/16 06:33:30;;;;;;;72.32;33.95;;;;;;;6.43;59.48;99754.94;5066157;28;20501;-57
2021/03/16 06:36:08;;;;;;;60.60;30.23;;;;;;;6.41;59.61;99746.19;5063010;28;20528;-60
2021/03/16 06:38:37;;;;;;;62.00;30.60;;;;;;;6.37;59.18;99739.38;5064476;28;20069;-63
2021/03/16 06:41:12;;;;;;;62.03;29.67;;;;;;;6.41;59.74;99751.53;5068025;28;20063;-59
2021/03/16 06:43:38;;;;;;;;;;;;;;;6.58;58.89;99757.56;5067901;28;20044;-59
2021/03/16 06:46:04;;;;;;;;;;;;;;;6.71;58.02;99750.47;5067297;28;19924;-55
2021/03/16 06:48:37;;;;;;;50.97;25.58;;;;;;;6.62;59.03;99753.75;5058787;28;20379;-63
2021/03/16 06:51:12;;;;;;;51.50;27.23;;;;;;;6.71;59.32;99758.44;5032655;28;20045;-65
2021/03/16 06:53:37;;;;;;;52.45;25.27;;;;;;;6.73;58.29;99735.25;5046893;28;20029;-62
2021/03/16 06:56:03;;;;;;;47.75;23.80;;;;;;;7.02;58.57;99758.22;5057942;28;20522;-60
2021/03/16 06:58:31;;;;;;;32.13;16.92;;;;;;;7.21;57.71;99757.00;5066855;28;20115;-53
2021/03/16 07:01:14;;;;;;;28.13;16.10;;;;;;;7.40;57.07;99761.91;5068583;28;20067;-59
2021/03/16 07:03:40;;;;;;;30.70;16.52;;;;;;;7.57;56.49;99750.94;5070934;28;20047;-62
2021/03/16 07:06:16;;;;;;;33.33;17.85;;;;;;;7.53;55.92;99700.66;5068425;28;20047;-63
2021/03/16 07:08:43;;;;;;;29.33;17.23;;;;;;;7.99;55.52;99752.53;5066982;28;20032;-60
2021/03/16 07:11:18;;;;;;;34.90;17.33;;;;;;;8.11;54.89;99742.81;5064430;28;20043;-63
2021/03/16 07:13:44;;;;;;;30.63;17.90;;;;;;;7.94;54.78;99742.19;5070051;28;20347;-62
2021/03/16 07:16:11;;;;;;;35.55;18.67;;;;;;;7.93;55.67;99744.94;5055481;28;20039;-62
2021/03/16 07:18:39;;;;;;;31.63;17.90;;;;;;;8.04;55.19;99769.03;5054386;28;20048;-61
2021/03/16 07:21:07;;;;;;;38.38;17.95;;;;;;;8.02;54.87;99753.16;5052351;28;20045;-63
2021/03/16 07:24:01;;;;;;;34.00;17.95;;;;;;;7.95;55.49;99757.22;5054060;28;20086;-61
2021/03/16 07:26:28;;;;;;;31.98;18.65;;;;;;;7.78;55.55;99744.22;5052107;28;20059;-61
2021/03/16 07:28:55;;;;;;;35.40;19.15;;;;;;;7.79;55.50;99744.13;5071895;28;20430;-61
2021/03/16 07:31:21;;;;;;;34.10;19.73;;;;;;;7.84;55.47;99743.81;5073659;28;20028;-59
2021/03/16 07:33:47;;;;;;;39.38;20.05;;;;;;;8.03;55.46;99738.00;5074162;28;20040;-63
2021/03/16 07:36:12;;;;;;;32.17;19.15;;;;;;;8.18;54.70;99744.06;5072333;28;20041;-61
2021/03/16 07:38:39;;;;;;;33.80;17.98;;;;;;;8.25;54.74;99750.66;5071094;28;20032;-59
2021/03/16 07:41:07;;;;;;;37.28;18.55;;;;;;;8.26;54.03;99730.19;5073829;28;20110;-61
2021/03/16 07:43:41;;;;;;;33.55;19.25;;;;;;;8.30;54.27;99731.66;5073967;28;20063;-59
2021/03/16 07:46:11;;;;;;;34.08;18.35;;;;;;;8.34;54.34;99749.13;5073438;28;20103;-63
2021/03/16 07:48:51;;;;;;;31.67;17.80;;;;;;;8.52;53.67;99744.28;5060029;28;20056;-61
2021/03/16 07:51:19;;;;;;;32.08;17.58;;;;;;;8.68;53.37;99741.38;5053059;28;20036;-64
2021/03/16 07:54:06;;;;;;;33.50;18.05;;;;;;;8.96;53.06;99747.31;5053392;28;20536;-60
2021/03/16 07:56:33;;;;;;;31.65;17.40;;;;;;;9.11;52.67;99760.44;5070317;28;20539;-62
2021/03/16 07:59:03;;;;;;;29.85;15.45;;;;;;;9.26;52.23;99745.94;5061727;28;20043;-65
2021/03/16 08:01:28;;;;;;;29.98;15.13;;;;;;;9.40;52.09;99741.34;5070688;28;20120;-60
2021/03/16 08:04:08;;;;;;;20.98;12.27;;;;;;;9.40;51.12;99739.53;5072872;28;20123;-61
2021/03/16 08:06:36;;;;;;;19.73;12.07;;;;;;;9.12;51.53;99735.44;5073049;28;20028;-61
2021/03/16 08:09:05;;;;;;;18.10;10.98;;;;;;;8.88;51.46;99731.00;5071339;28;20036;-61
2021/03/16 08:11:41;;;;;;;17.92;11.88;;;;;;;8.87;52.15;99735.50;5071072;28;20158;-61
2021/03/16 08:14:08;;;;;;;20.50;11.25;;;;;;;8.76;51.33;99740.78;5073262;28;20059;-62
2021/03/16 08:16:39;;;;;;;22.65;13.02;;;;;;;8.49;52.25;99747.16;5072924;28;20542;-61
2021/03/16 08:19:14;;;;;;;24.95;12.45;;;;;;;8.36;52.84;99741.88;5064722;28;20039;-63
2021/03/16 08:21:41;;;;;;;18.90;11.75;;;;;;;8.46;52.12;99745.59;5053006;28;20050;-62
2021/03/16 08:24:14;;;;;;;20.52;11.35;;;;;;;8.26;52.42;99751.50;5052871;28;20033;-61
2021/03/16 08:26:45;;;;;;;20.08;11.27;;;;;;;8.11;52.93;99740.13;5052613;28;20068;-61
2021/03/16 08:29:11;;;;;;;15.43;9.48;;;;;;;8.18;52.81;99744.91;5053952;28;20025;-61
2021/03/16 08:31:37;;;;;;;14.60;8.65;;;;;;;8.24;52.44;99756.09;5053882;28;20051;-62
2021/03/16 08:34:03;;;;;;;15.55;9.82;;;;;;;8.21;52.78;99748.34;5052506;28;20111;-62
2021/03/16 08:36:38;;;;;;;12.82;7.80;;;;;;;8.15;51.63;99753.13;5052717;28;20128;-62
2021/03/16 08:39:04;;;;;;;17.10;8.90;;;;;;;8.02;51.82;99753.16;5053505;28;20041;-62
2021/03/16 08:41:30;;;;;;;18.05;9.57;;;;;;;7.63;52.98;99754.16;5053445;28;20056;-63
2021/03/16 08:43:55;;;;;;;15.48;10.35;;;;;;;7.54;53.22;99760.97;5052403;28;20478;-61
2021/03/16 08:46:32;;;;;;;16.83;10.55;;;;;;;7.35;53.95;99772.88;5052379;28;20522;-62
2021/03/16 08:48:58;;;;;;;15.20;10.15;;;;;;;7.26;54.29;99757.53;5052432;28;20048;-60
2021/03/16 08:51:26;;;;;;;17.10;11.13;;;;;;;7.28;54.49;99766.25;5054653;28;20375;-62
2021/03/16 08:53:51;;;;;;;17.50;11.25;;;;;;;7.40;54.54;99753.91;5051991;28;20143;-62
2021/03/16 08:56:21;;;;;;;17.77;10.80;;;;;;;7.56;54.35;99757.25;5052452;28;20055;-62
2021/03/16 08:58:48;;;;;;;17.50;11.10;;;;;;;7.58;54.01;99751.78;5052456;28;20178;-62
2021/03/16 09:01:24;;;;;;;19.35;11.68;;;;;;;7.49;54.38;99769.28;5053922;28;20028;-60
2021/03/16 09:03:51;;;;;;;15.73;10.90;;;;;;;7.31;54.66;99753.59;5060183;28;20082;-63
2021/03/16 09:06:19;;;;;;;16.90;11.40;;;;;;;7.37;54.58;99760.34;5052135;28;20032;-61
2021/03/16 09:08:49;;;;;;;16.52;11.25;;;;;;;7.24;54.58;99739.00;5052317;28;20115;-62
2021/03/16 09:11:26;;;;;;;17.90;11.77;;;;;;;7.24;54.80;99757.66;5051937;28;20033;-61
2021/03/16 09:13:52;;;;;;;19.45;12.23;;;;;;;7.10;55.16;99747.91;5055094;28;20112;-63
2021/03/16 09:16:22;;;;;;;20.42;11.82;;;;;;;6.99;56.04;99746.00;5072247;28;20520;-61
2021/03/16 09:18:48;;;;;;;16.45;12.23;;;;;;;7.08;55.86;99754.31;5072225;28;20561;-62
2021/03/16 09:21:14;;;;;;;18.98;12.05;;;;;;;7.14;55.77;99756.56;5071768;28;20498;-61
2021/03/16 09:23:39;;;;;;;17.50;11.38;;;;;;;7.06;55.66;99756.22;5071758;28;20039;-62
2021/03/16 09:26:05;;;;;;;22.77;13.85;;;;;;;6.90;55.81;99762.56;5070021;28;20131;-61
2021/03/16 09:28:32;;;;;;;20.17;12.63;;;;;;;6.37;56.19;99702.16;5070451;28;20040;-60
2021/03/16 09:30:58;;;;;;;19.92;12.30;;;;;;;6.73;56.31;99772.50;5070447;28;20044;-61
2021/03/16 09:33:25;;;;;;;20.77;12.80;;;;;;;6.66;57.05;99770.38;5070855;28;20123;-59
2021/03/16 09:35:55;;;;;;;22.52;12.75;;;;;;;6.61;57.16;99765.34;5068890;28;20036;-61
2021/03/16 09:38:20;;;;;;;24.40;15.30;;;;;;;6.52;57.13;99771.25;5071866;28;20490;-61
2021/03/16 09:40:46;;;;;;;24.20;15.88;;;;;;;6.40;57.77;99771.09;5070752;28;20036;-62
2021/03/16 09:43:36;;;;;;;24.23;14.35;;;;;;;6.35;59.11;99767.88;5071004;28;20359;-59
2021/03/16 09:46:07;;;;;;;24.08;14.95;;;;;;;6.45;58.20;99768.97;5067928;28;20055;-63
2021/03/16 09:48:33;;;;;;;26.08;15.60;;;;;;;6.52;58.08;99765.94;5070241;28;20051;-62
2021/03/16 09:51:10;;;;;;;26.17;15.32;;;;;;;6.46;58.05;99775.16;5070374;28;20052;-63
2021/03/16 09:53:36;;;;;;;25.08;16.33;;;;;;;6.25;58.87;99743.69;5067024;28;20047;-62
2021/03/16 09:56:03;;;;;;;27.67;16.55;;;;;;;6.39;59.28;99774.69;5064466;28;20398;-63
2021/03/16 09:58:29;;;;;;;26.30;15.02;;;;;;;6.52;58.67;99768.59;5064711;28;20044;-66
2021/03/16 10:00:56;;;;;;;31.15;18.38;;;;;;;6.40;59.50;99765.78;5058834;28;20056;-61
2021/03/16 10:03:22;;;;;;;29.98;17.70;;;;;;;6.29;59.34;99753.16;5053904;28;20040;-60
2021/03/16 10:05:48;;;;;;;28.73;18.20;;;;;;;6.16;59.92;99736.31;5051821;28;20044;-59
2021/03/16 10:08:25;;;;;;;26.98;17.70;;;;;;;6.35;60.18;99772.31;5051501;28;20048;-57
2021/03/16 10:10:51;;;;;;;25.10;17.00;;;;;;;6.25;59.85;99770.25;5051532;28;20159;-61
2021/03/16 10:13:28;;;;;;;28.95;16.60;;;;;;;6.08;59.64;99750.06;5050384;28;20105;-59
2021/03/16 10:15:54;;;;;;;20.63;13.98;;;;;;;6.13;59.50;99768.38;5050668;28;20116;-57
2021/03/16 10:18:24;;;;;;;19.83;13.73;;;;;;;6.03;60.33;99768.13;5052121;28;20051;-63
2021/03/16 10:20:51;;;;;;;19.45;13.07;;;;;;;5.99;59.82;99775.38;5051774;28;20033;-62
2021/03/16 10:23:19;;;;;;;20.98;12.95;;;;;;;5.85;60.66;99778.91;5050631;28;20037;-59
2021/03/16 10:26:05;;;;;;;17.88;12.25;;;;;;;5.88;61.22;99780.50;5050537;28;20032;-62
2021/03/16 10:28:42;;;;;;;19.83;11.40;;;;;;;5.79;60.79;99766.00;5051739;28;20117;-61
2021/03/16 10:31:22;;;;;;;16.73;12.05;;;;;;;5.76;61.95;99774.13;5050457;28;20029;-64
2021/03/16 10:33:50;;;;;;;17.08;11.23;;;;;;;5.77;61.90;99773.19;5051360;28;20154;-61
2021/03/16 10:36:16;;;;;;;16.10;10.75;;;;;;;5.87;60.75;99778.78;5050472;28;20071;-59
2021/03/16 10:38:42;;;;;;;17.63;11.93;;;;;;;5.74;60.52;99771.59;5055306;28;20055;-62
2021/03/16 10:41:07;;;;;;;15.48;11.18;;;;;;;5.64;60.46;99773.09;5067403;28;20122;-62
2021/03/16 10:43:42;;;;;;;17.50;11.73;;;;;;;5.56;61.07;99757.66;5070684;28;20028;-59
2021/03/16 10:46:07;;;;;;;17.80;12.05;;;;;;;5.62;60.75;99766.19;5056737;28;20048;-60
2021/03/16 10:48:33;;;;;;;19.48;13.30;;;;;;;5.60;60.83;99777.75;5053324;28;20475;-62
2021/03/16 10:50:59;;;;;;;22.40;13.95;;;;;;;5.55;60.65;99753.28;5074228;28;20037;-60
2021/03/16 10:53:24;;;;;;;16.85;12.98;;;;;;;5.71;61.18;99768.25;5078649;28;20458;-61
2021/03/16 10:55:50;;;;;;;21.25;13.88;;;;;;;5.79;60.70;99768.66;5081644;28;20086;-60
2021/03/16 10:58:15;;;;;;;18.67;12.77;;;;;;;5.75;60.53;99775.09;5073758;28;20896;-62
2021/03/16 11:00:40;;;;;;;19.10;13.40;;;;;;;5.76;61.10;99766.16;5074301;28;20028;-62
2021/03/16 11:03:06;;;;;;;20.02;13.63;;;;;;;5.81;61.05;99764.09;5071846;28;20033;-58
2021/03/16 11:05:32;;;;;;;20.20;13.38;;;;;;;5.96;60.53;99777.38;5070242;28;20033;-60
2021/03/16 11:07:58;;;;;;;23.20;15.57;;;;;;;5.92;60.84;99765.22;5062349;28;20049;-61
2021/03/16 11:10:23;;;;;;;25.20;15.73;;;;;;;5.92;60.19;99757.25;5051062;28;20036;-57
2021/03/16 11:12:48;;;;;;;22.15;15.02;;;;;;;5.89;60.75;99761.81;5050184;28;20035;-60
2021/03/16 11:15:14;;;;;;;22.20;15.25;;;;;;;5.89;60.18;99767.13;5065540;28;20378;-61
2021/03/16 11:17:40;;;;;;;22.70;15.52;;;;;;;5.88;60.33;99761.91;5065965;28;20136;-59
2021/03/16 11:20:06;;;;;;;22.08;15.77;;;;;;;5.89;60.78;99763.59;5056491;28;20413;-60
2021/03/16 11:22:32;;;;;;;22.52;16.05;;;;;;;5.84;60.34;99745.31;5064352;28;20087;-60
2021/03/16 11:24:57;;;;;;;21.77;16.17;;;;;;;5.95;60.13;99765.03;5062822;28;20036;-59
2021/03/16 11:27:23;;;;;;;21.98;15.20;;;;;;;5.88;60.45;99765.44;5062632;28;20040;-56
2021/03/16 11:29:48;;;;;;;21.45;15.57;;;;;;;5.83;60.39;99762.22;5049785;28;20080;-62